Terminal Aerodrome Forecast
Issued by NWS

Home | Current Version | Previous Version | Text Only | Print | Product List | Glossary On
Versions: 1 2 3 4 5 6 7 8 9 10 11 12 13
855
FTUS45 KTFX 120550 CCA
TAFBZN
TAF COR
KBZN 120550Z 1206/1306 VRB04KT P6SM OVC080
     FM120900 VRB05KT P6SM BKN035 OVC060
      TEMPO 1209/1212 5SM -RASN OVC035
     FM121800 VRB05KT P6SM BKN070=

USA.gov is the U.S. government's official web portal to all federal, state and local government web resources and services.